sensor_id;sensor_type;location;lat;lon;timestamp;P1;durP1;ratioP1;P2;durP2;ratioP2
20657;SDS011;10488;50.846;4.078;2023-03-21T00:00:44;16.83;;;6.03;;
20657;SDS011;10488;50.846;4.078;2023-03-21T00:03:13;14.63;;;6.50;;
20657;SDS011;10488;50.846;4.078;2023-03-21T00:05:40;15.77;;;5.72;;
20657;SDS011;10488;50.846;4.078;2023-03-21T00:08:07;19.77;;;6.32;;
20657;SDS011;10488;50.846;4.078;2023-03-21T00:10:34;12.55;;;5.53;;
20657;SDS011;10488;50.846;4.078;2023-03-21T00:13:01;17.20;;;5.82;;
20657;SDS011;10488;50.846;4.078;2023-03-21T00:15:27;16.15;;;5.82;;
20657;SDS011;10488;50.846;4.078;2023-03-21T00:17:54;15.63;;;5.60;;
20657;SDS011;10488;50.846;4.078;2023-03-21T00:20:29;11.10;;;5.45;;
20657;SDS011;10488;50.846;4.078;2023-03-21T00:23:02;8.55;;;5.20;;
20657;SDS011;10488;50.846;4.078;2023-03-21T00:25:30;9.82;;;5.38;;
20657;SDS011;10488;50.846;4.078;2023-03-21T00:27:57;12.93;;;5.03;;
20657;SDS011;10488;50.846;4.078;2023-03-21T00:30:23;15.77;;;5.25;;
20657;SDS011;10488;50.846;4.078;2023-03-21T00:32:49;12.48;;;4.95;;
20657;SDS011;10488;50.846;4.078;2023-03-21T00:35:15;13.68;;;5.38;;
20657;SDS011;10488;50.846;4.078;2023-03-21T00:37:40;9.57;;;4.78;;
20657;SDS011;10488;50.846;4.078;2023-03-21T00:40:07;13.98;;;4.97;;
20657;SDS011;10488;50.846;4.078;2023-03-21T00:42:34;12.48;;;4.78;;
20657;SDS011;10488;50.846;4.078;2023-03-21T00:45:01;9.77;;;4.53;;
20657;SDS011;10488;50.846;4.078;2023-03-21T00:47:27;12.63;;;5.63;;
20657;SDS011;10488;50.846;4.078;2023-03-21T00:49:54;11.98;;;4.60;;
20657;SDS011;10488;50.846;4.078;2023-03-21T00:52:22;16.23;;;5.50;;
20657;SDS011;10488;50.846;4.078;2023-03-21T00:54:47;17.67;;;6.15;;
20657;SDS011;10488;50.846;4.078;2023-03-21T00:57:14;14.57;;;6.22;;
20657;SDS011;10488;50.846;4.078;2023-03-21T00:59:41;22.42;;;6.93;;
20657;SDS011;10488;50.846;4.078;2023-03-21T01:02:07;19.13;;;6.32;;
20657;SDS011;10488;50.846;4.078;2023-03-21T01:04:38;15.77;;;6.28;;
20657;SDS011;10488;50.846;4.078;2023-03-21T01:07:04;19.13;;;6.60;;
20657;SDS011;10488;50.846;4.078;2023-03-21T01:09:31;20.85;;;6.72;;
20657;SDS011;10488;50.846;4.078;2023-03-21T01:11:57;17.02;;;6.63;;
20657;SDS011;10488;50.846;4.078;2023-03-21T01:14:22;16.98;;;6.78;;
20657;SDS011;10488;50.846;4.078;2023-03-21T01:16:50;19.77;;;7.05;;
20657;SDS011;10488;50.846;4.078;2023-03-21T01:19:18;19.33;;;6.35;;
20657;SDS011;10488;50.846;4.078;2023-03-21T01:21:47;16.88;;;6.90;;
20657;SDS011;10488;50.846;4.078;2023-03-21T01:24:13;20.27;;;6.07;;
20657;SDS011;10488;50.846;4.078;2023-03-21T01:26:39;19.35;;;6.20;;
20657;SDS011;10488;50.846;4.078;2023-03-21T01:29:06;21.95;;;6.93;;
20657;SDS011;10488;50.846;4.078;2023-03-21T01:31:32;18.30;;;6.85;;
20657;SDS011;10488;50.846;4.078;2023-03-21T01:33:59;27.80;;;7.18;;
20657;SDS011;10488;50.846;4.078;2023-03-21T01:36:25;18.08;;;5.93;;
20657;SDS011;10488;50.846;4.078;2023-03-21T01:38:51;20.83;;;6.60;;
20657;SDS011;10488;50.846;4.078;2023-03-21T01:41:24;20.52;;;6.05;;
20657;SDS011;10488;50.846;4.078;2023-03-21T01:43:55;17.70;;;6.25;;
20657;SDS011;10488;50.846;4.078;2023-03-21T01:46:38;19.30;;;6.60;;
20657;SDS011;10488;50.846;4.078;2023-03-21T01:52:02;23.13;;;6.35;;
20657;SDS011;10488;50.846;4.078;2023-03-21T01:54:32;13.13;;;5.55;;
20657;SDS011;10488;50.846;4.078;2023-03-21T01:57:03;21.42;;;6.45;;
20657;SDS011;10488;50.846;4.078;2023-03-21T01:59:43;16.65;;;7.55;;
20657;SDS011;10488;50.846;4.078;2023-03-21T02:02:15;18.50;;;7.18;;
20657;SDS011;10488;50.846;4.078;2023-03-21T02:04:47;19.35;;;6.65;;
20657;SDS011;10488;50.846;4.078;2023-03-21T02:07:16;13.32;;;6.43;;
20657;SDS011;10488;50.846;4.078;2023-03-21T02:09:50;20.73;;;6.80;;
20657;SDS011;10488;50.846;4.078;2023-03-21T02:12:17;19.65;;;6.47;;
20657;SDS011;10488;50.846;4.078;2023-03-21T02:14:45;14.95;;;6.20;;
20657;SDS011;10488;50.846;4.078;2023-03-21T02:31:05;16.02;;;6.03;;
20657;SDS011;10488;50.846;4.078;2023-03-21T02:41:37;11.93;;;5.50;;
20657;SDS011;10488;50.846;4.078;2023-03-21T02:44:20;13.73;;;5.95;;
20657;SDS011;10488;50.846;4.078;2023-03-21T02:50:02;13.90;;;5.35;;
20657;SDS011;10488;50.846;4.078;2023-03-21T02:52:34;15.02;;;5.60;;
20657;SDS011;10488;50.846;4.078;2023-03-21T02:55:01;18.27;;;4.97;;
20657;SDS011;10488;50.846;4.078;2023-03-21T02:57:30;11.43;;;4.70;;
20657;SDS011;10488;50.846;4.078;2023-03-21T02:59:59;11.02;;;4.93;;
20657;SDS011;10488;50.846;4.078;2023-03-21T03:02:26;15.05;;;5.22;;
20657;SDS011;10488;50.846;4.078;2023-03-21T03:04:53;14.68;;;5.10;;
20657;SDS011;10488;50.846;4.078;2023-03-21T03:10:29;12.50;;;5.15;;
20657;SDS011;10488;50.846;4.078;2023-03-21T03:18:55;15.65;;;5.47;;
20657;SDS011;10488;50.846;4.078;2023-03-21T03:21:28;18.27;;;5.25;;
20657;SDS011;10488;50.846;4.078;2023-03-21T03:26:40;14.07;;;5.68;;
20657;SDS011;10488;50.846;4.078;2023-03-21T03:29:15;14.60;;;6.00;;
20657;SDS011;10488;50.846;4.078;2023-03-21T03:31:48;15.32;;;6.90;;
20657;SDS011;10488;50.846;4.078;2023-03-21T03:34:20;20.17;;;6.43;;
20657;SDS011;10488;50.846;4.078;2023-03-21T03:36:51;13.90;;;6.38;;
20657;SDS011;10488;50.846;4.078;2023-03-21T03:39:21;18.40;;;6.65;;
20657;SDS011;10488;50.846;4.078;2023-03-21T03:41:55;17.30;;;6.70;;
20657;SDS011;10488;50.846;4.078;2023-03-21T03:44:25;16.17;;;6.70;;
20657;SDS011;10488;50.846;4.078;2023-03-21T03:47:00;13.45;;;6.95;;
20657;SDS011;10488;50.846;4.078;2023-03-21T03:49:31;14.35;;;6.50;;
20657;SDS011;10488;50.846;4.078;2023-03-21T03:52:16;17.65;;;7.50;;
20657;SDS011;10488;50.846;4.078;2023-03-21T03:54:46;20.20;;;7.75;;
20657;SDS011;10488;50.846;4.078;2023-03-21T03:57:14;14.25;;;7.30;;
20657;SDS011;10488;50.846;4.078;2023-03-21T03:59:42;18.38;;;7.32;;
20657;SDS011;10488;50.846;4.078;2023-03-21T04:02:08;15.02;;;6.97;;
20657;SDS011;10488;50.846;4.078;2023-03-21T04:04:35;13.70;;;7.15;;
20657;SDS011;10488;50.846;4.078;2023-03-21T04:07:04;20.10;;;7.85;;
20657;SDS011;10488;50.846;4.078;2023-03-21T04:09:30;18.75;;;7.95;;
20657;SDS011;10488;50.846;4.078;2023-03-21T04:11:56;20.90;;;7.75;;
20657;SDS011;10488;50.846;4.078;2023-03-21T04:14:22;20.60;;;7.95;;
20657;SDS011;10488;50.846;4.078;2023-03-21T04:16:50;21.38;;;7.75;;
20657;SDS011;10488;50.846;4.078;2023-03-21T04:19:17;14.23;;;7.60;;
20657;SDS011;10488;50.846;4.078;2023-03-21T04:21:44;18.48;;;7.28;;
20657;SDS011;10488;50.846;4.078;2023-03-21T04:24:11;14.77;;;7.82;;
20657;SDS011;10488;50.846;4.078;2023-03-21T04:26:39;17.05;;;7.22;;
20657;SDS011;10488;50.846;4.078;2023-03-21T04:29:05;17.20;;;8.35;;
20657;SDS011;10488;50.846;4.078;2023-03-21T04:31:32;17.20;;;8.05;;
20657;SDS011;10488;50.846;4.078;2023-03-21T04:34:01;17.80;;;7.80;;
20657;SDS011;10488;50.846;4.078;2023-03-21T04:36:33;22.88;;;8.85;;
20657;SDS011;10488;50.846;4.078;2023-03-21T04:39:04;19.30;;;8.02;;
20657;SDS011;10488;50.846;4.078;2023-03-21T04:41:37;18.25;;;8.23;;
20657;SDS011;10488;50.846;4.078;2023-03-21T04:44:07;23.73;;;9.18;;
20657;SDS011;10488;50.846;4.078;2023-03-21T04:46:33;17.70;;;8.35;;
20657;SDS011;10488;50.846;4.078;2023-03-21T04:48:59;19.67;;;8.43;;
20657;SDS011;10488;50.846;4.078;2023-03-21T04:51:26;19.27;;;8.10;;
20657;SDS011;10488;50.846;4.078;2023-03-21T04:53:51;20.50;;;8.07;;
20657;SDS011;10488;50.846;4.078;2023-03-21T04:56:21;20.20;;;8.05;;
20657;SDS011;10488;50.846;4.078;2023-03-21T04:58:56;14.10;;;7.55;;
20657;SDS011;10488;50.846;4.078;2023-03-21T05:01:22;17.13;;;8.40;;
20657;SDS011;10488;50.846;4.078;2023-03-21T05:03:51;16.95;;;8.32;;
20657;SDS011;10488;50.846;4.078;2023-03-21T05:06:16;19.25;;;8.40;;
20657;SDS011;10488;50.846;4.078;2023-03-21T05:08:43;21.65;;;8.13;;
20657;SDS011;10488;50.846;4.078;2023-03-21T05:11:09;16.98;;;8.23;;
20657;SDS011;10488;50.846;4.078;2023-03-21T05:13:36;18.00;;;8.75;;
20657;SDS011;10488;50.846;4.078;2023-03-21T05:16:02;18.13;;;8.27;;
20657;SDS011;10488;50.846;4.078;2023-03-21T05:18:28;16.05;;;7.68;;
20657;SDS011;10488;50.846;4.078;2023-03-21T05:20:55;17.70;;;7.90;;
20657;SDS011;10488;50.846;4.078;2023-03-21T05:23:22;20.42;;;8.15;;
20657;SDS011;10488;50.846;4.078;2023-03-21T05:25:48;22.48;;;8.50;;
20657;SDS011;10488;50.846;4.078;2023-03-21T05:28:14;15.82;;;7.88;;
20657;SDS011;10488;50.846;4.078;2023-03-21T05:30:45;19.13;;;9.27;;
20657;SDS011;10488;50.846;4.078;2023-03-21T05:33:11;24.73;;;8.75;;
20657;SDS011;10488;50.846;4.078;2023-03-21T05:35:37;18.27;;;7.55;;
20657;SDS011;10488;50.846;4.078;2023-03-21T05:38:03;17.77;;;8.63;;
20657;SDS011;10488;50.846;4.078;2023-03-21T05:40:28;16.45;;;7.28;;
20657;SDS011;10488;50.846;4.078;2023-03-21T05:42:54;16.60;;;8.32;;
20657;SDS011;10488;50.846;4.078;2023-03-21T05:45:21;18.83;;;8.48;;
20657;SDS011;10488;50.846;4.078;2023-03-21T05:47:47;23.25;;;8.48;;
20657;SDS011;10488;50.846;4.078;2023-03-21T05:50:13;26.38;;;9.55;;
20657;SDS011;10488;50.846;4.078;2023-03-21T05:52:38;17.48;;;9.40;;
20657;SDS011;10488;50.846;4.078;2023-03-21T05:55:04;23.08;;;8.98;;
20657;SDS011;10488;50.846;4.078;2023-03-21T05:57:30;17.48;;;7.97;;
20657;SDS011;10488;50.846;4.078;2023-03-21T05:59:59;15.35;;;7.53;;
20657;SDS011;10488;50.846;4.078;2023-03-21T06:02:25;12.52;;;7.20;;
20657;SDS011;10488;50.846;4.078;2023-03-21T06:04:51;12.93;;;6.55;;
20657;SDS011;10488;50.846;4.078;2023-03-21T06:07:17;19.77;;;7.78;;
20657;SDS011;10488;50.846;4.078;2023-03-21T06:09:43;13.30;;;7.35;;
20657;SDS011;10488;50.846;4.078;2023-03-21T06:12:09;19.23;;;7.88;;
20657;SDS011;10488;50.846;4.078;2023-03-21T06:14:36;23.30;;;7.82;;
20657;SDS011;10488;50.846;4.078;2023-03-21T06:17:01;14.00;;;8.10;;
20657;SDS011;10488;50.846;4.078;2023-03-21T06:19:28;17.48;;;8.50;;
20657;SDS011;10488;50.846;4.078;2023-03-21T06:21:54;15.02;;;8.20;;
20657;SDS011;10488;50.846;4.078;2023-03-21T06:24:20;18.17;;;8.10;;
20657;SDS011;10488;50.846;4.078;2023-03-21T06:26:45;18.25;;;8.20;;
20657;SDS011;10488;50.846;4.078;2023-03-21T06:29:12;20.08;;;7.70;;
20657;SDS011;10488;50.846;4.078;2023-03-21T06:31:37;22.48;;;8.40;;
20657;SDS011;10488;50.846;4.078;2023-03-21T06:34:03;18.80;;;7.43;;
20657;SDS011;10488;50.846;4.078;2023-03-21T06:36:34;17.10;;;7.95;;
20657;SDS011;10488;50.846;4.078;2023-03-21T06:39:21;13.68;;;6.97;;
20657;SDS011;10488;50.846;4.078;2023-03-21T06:41:46;15.18;;;7.78;;
20657;SDS011;10488;50.846;4.078;2023-03-21T06:44:12;17.48;;;7.00;;
20657;SDS011;10488;50.846;4.078;2023-03-21T06:46:37;12.98;;;6.47;;
20657;SDS011;10488;50.846;4.078;2023-03-21T06:49:03;24.50;;;8.20;;
20657;SDS011;10488;50.846;4.078;2023-03-21T06:51:29;16.92;;;6.55;;
20657;SDS011;10488;50.846;4.078;2023-03-21T06:53:54;12.27;;;7.03;;
20657;SDS011;10488;50.846;4.078;2023-03-21T06:56:20;12.63;;;6.05;;
20657;SDS011;10488;50.846;4.078;2023-03-21T06:58:46;15.73;;;5.82;;
20657;SDS011;10488;50.846;4.078;2023-03-21T07:01:11;11.48;;;6.78;;
20657;SDS011;10488;50.846;4.078;2023-03-21T07:03:38;14.52;;;5.82;;
20657;SDS011;10488;50.846;4.078;2023-03-21T07:06:05;13.30;;;5.30;;
20657;SDS011;10488;50.846;4.078;2023-03-21T07:08:33;10.95;;;4.80;;
20657;SDS011;10488;50.846;4.078;2023-03-21T07:10:59;14.88;;;5.50;;
20657;SDS011;10488;50.846;4.078;2023-03-21T07:13:25;12.38;;;5.22;;
20657;SDS011;10488;50.846;4.078;2023-03-21T07:15:51;11.25;;;5.07;;
20657;SDS011;10488;50.846;4.078;2023-03-21T07:18:17;13.50;;;5.80;;
20657;SDS011;10488;50.846;4.078;2023-03-21T07:20:47;8.15;;;4.38;;
20657;SDS011;10488;50.846;4.078;2023-03-21T07:23:17;7.63;;;4.50;;
20657;SDS011;10488;50.846;4.078;2023-03-21T07:25:44;9.80;;;4.47;;
20657;SDS011;10488;50.846;4.078;2023-03-21T07:28:12;12.32;;;4.95;;
20657;SDS011;10488;50.846;4.078;2023-03-21T07:30:37;13.13;;;5.15;;
20657;SDS011;10488;50.846;4.078;2023-03-21T07:33:03;9.88;;;4.18;;
20657;SDS011;10488;50.846;4.078;2023-03-21T07:35:29;11.30;;;4.70;;
20657;SDS011;10488;50.846;4.078;2023-03-21T07:37:55;12.38;;;4.95;;
20657;SDS011;10488;50.846;4.078;2023-03-21T07:40:21;13.63;;;5.13;;
20657;SDS011;10488;50.846;4.078;2023-03-21T07:42:47;13.60;;;5.70;;
20657;SDS011;10488;50.846;4.078;2023-03-21T07:45:14;11.52;;;5.53;;
20657;SDS011;10488;50.846;4.078;2023-03-21T07:47:45;12.75;;;5.28;;
20657;SDS011;10488;50.846;4.078;2023-03-21T07:50:10;15.85;;;5.85;;
20657;SDS011;10488;50.846;4.078;2023-03-21T07:52:37;13.80;;;5.22;;
20657;SDS011;10488;50.846;4.078;2023-03-21T07:55:03;11.85;;;5.47;;
20657;SDS011;10488;50.846;4.078;2023-03-21T07:57:30;10.80;;;5.50;;
20657;SDS011;10488;50.846;4.078;2023-03-21T07:59:56;16.50;;;5.13;;
20657;SDS011;10488;50.846;4.078;2023-03-21T08:02:23;13.07;;;5.10;;
20657;SDS011;10488;50.846;4.078;2023-03-21T08:04:49;9.00;;;5.45;;
20657;SDS011;10488;50.846;4.078;2023-03-21T08:07:16;13.93;;;5.93;;
20657;SDS011;10488;50.846;4.078;2023-03-21T08:09:43;12.02;;;4.50;;
20657;SDS011;10488;50.846;4.078;2023-03-21T08:12:10;8.90;;;4.93;;
20657;SDS011;10488;50.846;4.078;2023-03-21T08:14:36;9.65;;;5.10;;
20657;SDS011;10488;50.846;4.078;2023-03-21T08:17:02;6.70;;;4.90;;
20657;SDS011;10488;50.846;4.078;2023-03-21T08:19:30;17.17;;;5.72;;
20657;SDS011;10488;50.846;4.078;2023-03-21T08:21:56;12.00;;;5.38;;
20657;SDS011;10488;50.846;4.078;2023-03-21T08:24:27;11.27;;;4.68;;
20657;SDS011;10488;50.846;4.078;2023-03-21T08:26:54;11.32;;;4.75;;
20657;SDS011;10488;50.846;4.078;2023-03-21T08:29:19;10.68;;;4.97;;
20657;SDS011;10488;50.846;4.078;2023-03-21T08:31:45;11.23;;;4.75;;
20657;SDS011;10488;50.846;4.078;2023-03-21T08:34:12;15.80;;;5.07;;
20657;SDS011;10488;50.846;4.078;2023-03-21T08:36:38;6.95;;;4.55;;
20657;SDS011;10488;50.846;4.078;2023-03-21T08:39:05;10.13;;;4.97;;
20657;SDS011;10488;50.846;4.078;2023-03-21T08:41:32;10.80;;;4.63;;
20657;SDS011;10488;50.846;4.078;2023-03-21T08:44:00;12.25;;;4.82;;
20657;SDS011;10488;50.846;4.078;2023-03-21T08:46:26;12.18;;;5.50;;
20657;SDS011;10488;50.846;4.078;2023-03-21T08:48:52;11.55;;;5.15;;
20657;SDS011;10488;50.846;4.078;2023-03-21T08:51:18;7.03;;;4.85;;
20657;SDS011;10488;50.846;4.078;2023-03-21T08:53:44;9.57;;;4.00;;
20657;SDS011;10488;50.846;4.078;2023-03-21T08:56:10;13.77;;;4.82;;
20657;SDS011;10488;50.846;4.078;2023-03-21T08:58:36;10.27;;;4.95;;
20657;SDS011;10488;50.846;4.078;2023-03-21T09:01:03;11.63;;;4.95;;
20657;SDS011;10488;50.846;4.078;2023-03-21T09:03:30;8.05;;;4.55;;
20657;SDS011;10488;50.846;4.078;2023-03-21T09:05:56;10.95;;;4.95;;
20657;SDS011;10488;50.846;4.078;2023-03-21T09:08:23;12.95;;;4.93;;
20657;SDS011;10488;50.846;4.078;2023-03-21T09:10:51;11.68;;;4.90;;
20657;SDS011;10488;50.846;4.078;2023-03-21T09:13:18;16.33;;;4.70;;
20657;SDS011;10488;50.846;4.078;2023-03-21T09:15:44;11.13;;;4.65;;
20657;SDS011;10488;50.846;4.078;2023-03-21T09:18:11;16.27;;;4.85;;
20657;SDS011;10488;50.846;4.078;2023-03-21T09:20:46;10.32;;;5.20;;
20657;SDS011;10488;50.846;4.078;2023-03-21T09:23:13;9.15;;;5.28;;
20657;SDS011;10488;50.846;4.078;2023-03-21T09:25:39;13.65;;;4.55;;
20657;SDS011;10488;50.846;4.078;2023-03-21T09:28:06;10.80;;;4.43;;
20657;SDS011;10488;50.846;4.078;2023-03-21T09:30:33;12.48;;;4.60;;
20657;SDS011;10488;50.846;4.078;2023-03-21T09:33:01;11.60;;;4.57;;
20657;SDS011;10488;50.846;4.078;2023-03-21T09:35:30;10.77;;;4.70;;
20657;SDS011;10488;50.846;4.078;2023-03-21T09:37:56;10.93;;;4.32;;
20657;SDS011;10488;50.846;4.078;2023-03-21T09:45:57;7.25;;;4.10;;
20657;SDS011;10488;50.846;4.078;2023-03-21T09:51:01;9.82;;;3.65;;
20657;SDS011;10488;50.846;4.078;2023-03-21T09:53:47;9.20;;;3.67;;
20657;SDS011;10488;50.846;4.078;2023-03-21T09:56:14;9.70;;;3.55;;
20657;SDS011;10488;50.846;4.078;2023-03-21T09:58:45;7.13;;;3.67;;
20657;SDS011;10488;50.846;4.078;2023-03-21T10:01:19;9.23;;;3.28;;
20657;SDS011;10488;50.846;4.078;2023-03-21T10:04:02;8.95;;;3.88;;
20657;SDS011;10488;50.846;4.078;2023-03-21T10:06:30;8.27;;;3.50;;
20657;SDS011;10488;50.846;4.078;2023-03-21T10:08:59;8.98;;;3.45;;
20657;SDS011;10488;50.846;4.078;2023-03-21T10:14:06;11.23;;;4.57;;
20657;SDS011;10488;50.846;4.078;2023-03-21T10:16:48;6.55;;;3.15;;
20657;SDS011;10488;50.846;4.078;2023-03-21T10:19:20;6.75;;;3.30;;
20657;SDS011;10488;50.846;4.078;2023-03-21T10:21:47;7.75;;;3.40;;
20657;SDS011;10488;50.846;4.078;2023-03-21T10:24:16;9.88;;;3.78;;
20657;SDS011;10488;50.846;4.078;2023-03-21T10:26:49;9.98;;;3.50;;
20657;SDS011;10488;50.846;4.078;2023-03-21T10:29:16;4.97;;;3.03;;
20657;SDS011;10488;50.846;4.078;2023-03-21T10:31:46;8.02;;;3.67;;
20657;SDS011;10488;50.846;4.078;2023-03-21T10:34:22;7.57;;;3.30;;
20657;SDS011;10488;50.846;4.078;2023-03-21T10:36:53;7.95;;;3.25;;
20657;SDS011;10488;50.846;4.078;2023-03-21T10:39:20;11.77;;;3.60;;
20657;SDS011;10488;50.846;4.078;2023-03-21T10:41:56;11.15;;;4.07;;
20657;SDS011;10488;50.846;4.078;2023-03-21T10:44:21;7.18;;;3.45;;
20657;SDS011;10488;50.846;4.078;2023-03-21T10:47:02;9.30;;;3.70;;
20657;SDS011;10488;50.846;4.078;2023-03-21T10:49:32;7.20;;;2.95;;
20657;SDS011;10488;50.846;4.078;2023-03-21T10:52:01;6.65;;;3.42;;
20657;SDS011;10488;50.846;4.078;2023-03-21T10:54:32;7.45;;;3.42;;
20657;SDS011;10488;50.846;4.078;2023-03-21T10:59:40;8.02;;;3.65;;
20657;SDS011;10488;50.846;4.078;2023-03-21T11:02:15;11.88;;;3.97;;
20657;SDS011;10488;50.846;4.078;2023-03-21T11:04:44;8.75;;;3.67;;
20657;SDS011;10488;50.846;4.078;2023-03-21T11:07:12;6.60;;;3.85;;
20657;SDS011;10488;50.846;4.078;2023-03-21T11:09:43;7.40;;;3.80;;
20657;SDS011;10488;50.846;4.078;2023-03-21T11:12:15;9.73;;;3.70;;
20657;SDS011;10488;50.846;4.078;2023-03-21T11:14:46;8.45;;;3.50;;
20657;SDS011;10488;50.846;4.078;2023-03-21T11:22:26;7.50;;;3.90;;
20657;SDS011;10488;50.846;4.078;2023-03-21T11:24:58;4.75;;;3.33;;
20657;SDS011;10488;50.846;4.078;2023-03-21T11:27:25;6.03;;;3.70;;
20657;SDS011;10488;50.846;4.078;2023-03-21T11:29:53;8.63;;;4.40;;
20657;SDS011;10488;50.846;4.078;2023-03-21T11:32:34;8.85;;;4.60;;
20657;SDS011;10488;50.846;4.078;2023-03-21T11:35:20;10.25;;;3.72;;
20657;SDS011;10488;50.846;4.078;2023-03-21T11:37:52;8.80;;;3.53;;
20657;SDS011;10488;50.846;4.078;2023-03-21T11:40:21;11.02;;;3.50;;
20657;SDS011;10488;50.846;4.078;2023-03-21T11:42:52;7.57;;;3.35;;
20657;SDS011;10488;50.846;4.078;2023-03-21T11:45:34;7.03;;;3.28;;
20657;SDS011;10488;50.846;4.078;2023-03-21T11:48:06;6.63;;;3.08;;
20657;SDS011;10488;50.846;4.078;2023-03-21T11:50:46;7.35;;;3.30;;
20657;SDS011;10488;50.846;4.078;2023-03-21T11:53:25;14.50;;;4.38;;
20657;SDS011;10488;50.846;4.078;2023-03-21T11:56:19;5.75;;;3.00;;
20657;SDS011;10488;50.846;4.078;2023-03-21T11:58:57;11.55;;;4.03;;
20657;SDS011;10488;50.846;4.078;2023-03-21T12:01:48;14.35;;;3.70;;
20657;SDS011;10488;50.846;4.078;2023-03-21T12:18:36;10.13;;;4.03;;
20657;SDS011;10488;50.846;4.078;2023-03-21T12:23:44;8.05;;;3.55;;
20657;SDS011;10488;50.846;4.078;2023-03-21T12:26:19;6.68;;;3.35;;
20657;SDS011;10488;50.846;4.078;2023-03-21T12:39:53;6.47;;;3.75;;
20657;SDS011;10488;50.846;4.078;2023-03-21T12:47:46;8.73;;;4.28;;
20657;SDS011;10488;50.846;4.078;2023-03-21T12:50:18;7.50;;;4.03;;
20657;SDS011;10488;50.846;4.078;2023-03-21T12:52:53;8.10;;;4.40;;
20657;SDS011;10488;50.846;4.078;2023-03-21T12:55:25;10.68;;;4.22;;
20657;SDS011;10488;50.846;4.078;2023-03-21T12:58:10;11.20;;;4.30;;
20657;SDS011;10488;50.846;4.078;2023-03-21T13:00:53;5.88;;;4.35;;
20657;SDS011;10488;50.846;4.078;2023-03-21T13:05:55;13.10;;;4.82;;
20657;SDS011;10488;50.846;4.078;2023-03-21T13:11:11;13.40;;;4.10;;
20657;SDS011;10488;50.846;4.078;2023-03-21T13:22:03;9.73;;;4.35;;
20657;SDS011;10488;50.846;4.078;2023-03-21T13:24:46;7.90;;;4.18;;
20657;SDS011;10488;50.846;4.078;2023-03-21T13:29:52;7.07;;;4.57;;
20657;SDS011;10488;50.846;4.078;2023-03-21T13:32:46;9.32;;;5.10;;
20657;SDS011;10488;50.846;4.078;2023-03-21T13:37:55;14.00;;;5.40;;
20657;SDS011;10488;50.846;4.078;2023-03-21T13:43:30;9.43;;;5.00;;
20657;SDS011;10488;50.846;4.078;2023-03-21T13:45:55;9.85;;;4.63;;
20657;SDS011;10488;50.846;4.078;2023-03-21T13:48:28;11.10;;;5.53;;
20657;SDS011;10488;50.846;4.078;2023-03-21T13:50:59;8.18;;;5.30;;
20657;SDS011;10488;50.846;4.078;2023-03-21T13:53:30;6.68;;;4.63;;
20657;SDS011;10488;50.846;4.078;2023-03-21T14:03:57;11.05;;;5.57;;
20657;SDS011;10488;50.846;4.078;2023-03-21T14:11:55;15.63;;;7.65;;
20657;SDS011;10488;50.846;4.078;2023-03-21T14:14:22;11.13;;;6.85;;
20657;SDS011;10488;50.846;4.078;2023-03-21T14:16:53;14.07;;;7.57;;
20657;SDS011;10488;50.846;4.078;2023-03-21T14:19:19;12.68;;;6.15;;
20657;SDS011;10488;50.846;4.078;2023-03-21T14:21:53;13.13;;;6.20;;
20657;SDS011;10488;50.846;4.078;2023-03-21T14:24:19;15.52;;;6.85;;
20657;SDS011;10488;50.846;4.078;2023-03-21T14:26:47;16.13;;;6.55;;
20657;SDS011;10488;50.846;4.078;2023-03-21T14:29:25;9.60;;;6.47;;
20657;SDS011;10488;50.846;4.078;2023-03-21T14:31:54;13.13;;;6.50;;
20657;SDS011;10488;50.846;4.078;2023-03-21T14:34:21;11.25;;;6.43;;
20657;SDS011;10488;50.846;4.078;2023-03-21T14:36:48;8.55;;;5.93;;
20657;SDS011;10488;50.846;4.078;2023-03-21T14:39:16;11.65;;;6.90;;
20657;SDS011;10488;50.846;4.078;2023-03-21T14:41:51;8.13;;;6.18;;
20657;SDS011;10488;50.846;4.078;2023-03-21T14:44:35;7.32;;;5.72;;
20657;SDS011;10488;50.846;4.078;2023-03-21T14:47:04;9.45;;;5.95;;
20657;SDS011;10488;50.846;4.078;2023-03-21T14:49:32;11.15;;;5.90;;
20657;SDS011;10488;50.846;4.078;2023-03-21T14:54:46;9.05;;;5.00;;
20657;SDS011;10488;50.846;4.078;2023-03-21T14:57:14;9.60;;;5.80;;
20657;SDS011;10488;50.846;4.078;2023-03-21T14:59:46;8.90;;;5.22;;
20657;SDS011;10488;50.846;4.078;2023-03-21T15:02:18;9.98;;;5.32;;
20657;SDS011;10488;50.846;4.078;2023-03-21T15:05:05;9.35;;;5.45;;
20657;SDS011;10488;50.846;4.078;2023-03-21T15:07:55;10.10;;;5.43;;
20657;SDS011;10488;50.846;4.078;2023-03-21T15:10:21;8.13;;;5.97;;
20657;SDS011;10488;50.846;4.078;2023-03-21T15:13:11;9.23;;;6.45;;
20657;SDS011;10488;50.846;4.078;2023-03-21T15:15:43;8.40;;;5.72;;
20657;SDS011;10488;50.846;4.078;2023-03-21T15:18:10;9.75;;;5.97;;
20657;SDS011;10488;50.846;4.078;2023-03-21T15:20:40;11.35;;;6.80;;
20657;SDS011;10488;50.846;4.078;2023-03-21T15:23:29;8.93;;;7.05;;
20657;SDS011;10488;50.846;4.078;2023-03-21T15:26:02;9.95;;;6.88;;
20657;SDS011;10488;50.846;4.078;2023-03-21T15:28:29;10.98;;;6.32;;
20657;SDS011;10488;50.846;4.078;2023-03-21T15:30:55;10.15;;;6.32;;
20657;SDS011;10488;50.846;4.078;2023-03-21T15:33:22;9.60;;;5.93;;
20657;SDS011;10488;50.846;4.078;2023-03-21T15:35:50;9.52;;;5.68;;
20657;SDS011;10488;50.846;4.078;2023-03-21T15:38:37;10.90;;;5.88;;
20657;SDS011;10488;50.846;4.078;2023-03-21T15:41:13;8.18;;;5.50;;
20657;SDS011;10488;50.846;4.078;2023-03-21T15:43:40;8.85;;;5.57;;
20657;SDS011;10488;50.846;4.078;2023-03-21T15:46:13;7.38;;;5.30;;
20657;SDS011;10488;50.846;4.078;2023-03-21T15:48:41;7.55;;;5.38;;
20657;SDS011;10488;50.846;4.078;2023-03-21T15:51:19;7.57;;;5.65;;
20657;SDS011;10488;50.846;4.078;2023-03-21T15:53:47;8.07;;;5.38;;
20657;SDS011;10488;50.846;4.078;2023-03-21T15:56:18;7.55;;;5.07;;
20657;SDS011;10488;50.846;4.078;2023-03-21T15:58:46;9.60;;;5.25;;
20657;SDS011;10488;50.846;4.078;2023-03-21T16:01:19;5.85;;;5.10;;
20657;SDS011;10488;50.846;4.078;2023-03-21T16:03:47;6.55;;;4.57;;
20657;SDS011;10488;50.846;4.078;2023-03-21T16:06:21;11.20;;;4.72;;
20657;SDS011;10488;50.846;4.078;2023-03-21T16:09:02;8.35;;;5.18;;
20657;SDS011;10488;50.846;4.078;2023-03-21T16:11:41;7.38;;;5.30;;
20657;SDS011;10488;50.846;4.078;2023-03-21T16:14:08;7.38;;;4.60;;
20657;SDS011;10488;50.846;4.078;2023-03-21T16:16:34;6.18;;;4.28;;
20657;SDS011;10488;50.846;4.078;2023-03-21T16:19:00;6.50;;;4.25;;
20657;SDS011;10488;50.846;4.078;2023-03-21T16:21:28;7.47;;;4.07;;
20657;SDS011;10488;50.846;4.078;2023-03-21T16:23:55;6.43;;;4.15;;
20657;SDS011;10488;50.846;4.078;2023-03-21T16:26:32;6.43;;;3.80;;
20657;SDS011;10488;50.846;4.078;2023-03-21T16:29:01;7.15;;;4.60;;
20657;SDS011;10488;50.846;4.078;2023-03-21T16:31:27;6.85;;;5.05;;
20657;SDS011;10488;50.846;4.078;2023-03-21T16:33:55;6.47;;;4.50;;
20657;SDS011;10488;50.846;4.078;2023-03-21T16:36:39;5.95;;;4.68;;
20657;SDS011;10488;50.846;4.078;2023-03-21T16:39:15;8.57;;;5.25;;
20657;SDS011;10488;50.846;4.078;2023-03-21T16:41:45;10.13;;;5.32;;
20657;SDS011;10488;50.846;4.078;2023-03-21T16:44:12;6.10;;;4.88;;
20657;SDS011;10488;50.846;4.078;2023-03-21T16:46:38;6.35;;;4.53;;
20657;SDS011;10488;50.846;4.078;2023-03-21T16:49:03;5.93;;;4.78;;
20657;SDS011;10488;50.846;4.078;2023-03-21T16:51:31;7.32;;;5.53;;
20657;SDS011;10488;50.846;4.078;2023-03-21T16:53:59;9.88;;;5.25;;
20657;SDS011;10488;50.846;4.078;2023-03-21T16:56:33;9.57;;;5.60;;
20657;SDS011;10488;50.846;4.078;2023-03-21T16:59:02;8.95;;;5.32;;
20657;SDS011;10488;50.846;4.078;2023-03-21T17:01:30;10.35;;;5.88;;